sensor_id;sensor_type;location;lat;lon;timestamp;P1;durP1;ratioP1;P2;durP2;ratioP2
23258;SDS011;11798;51.528;7.240;2023-02-26T00:01:54;6.53;;;2.10;;
23258;SDS011;11798;51.528;7.240;2023-02-26T00:04:22;6.23;;;2.30;;
23258;SDS011;11798;51.528;7.240;2023-02-26T00:06:48;7.73;;;2.20;;
23258;SDS011;11798;51.528;7.240;2023-02-26T00:09:19;5.40;;;2.30;;
23258;SDS011;11798;51.528;7.240;2023-02-26T00:11:46;7.97;;;2.17;;
23258;SDS011;11798;51.528;7.240;2023-02-26T00:14:13;7.50;;;2.10;;
23258;SDS011;11798;51.528;7.240;2023-02-26T00:16:40;4.43;;;2.00;;
23258;SDS011;11798;51.528;7.240;2023-02-26T00:19:07;6.23;;;2.83;;
23258;SDS011;11798;51.528;7.240;2023-02-26T00:21:35;8.00;;;2.33;;
23258;SDS011;11798;51.528;7.240;2023-02-26T00:24:02;4.80;;;2.17;;
23258;SDS011;11798;51.528;7.240;2023-02-26T00:26:28;7.83;;;2.07;;
23258;SDS011;11798;51.528;7.240;2023-02-26T00:28:55;9.13;;;3.13;;
23258;SDS011;11798;51.528;7.240;2023-02-26T00:31:22;7.40;;;2.10;;
23258;SDS011;11798;51.528;7.240;2023-02-26T00:33:51;4.93;;;2.27;;
23258;SDS011;11798;51.528;7.240;2023-02-26T00:39:35;5.63;;;2.10;;
23258;SDS011;11798;51.528;7.240;2023-02-26T00:42:11;6.77;;;1.70;;
23258;SDS011;11798;51.528;7.240;2023-02-26T00:44:38;3.37;;;1.83;;
23258;SDS011;11798;51.528;7.240;2023-02-26T00:47:07;6.70;;;2.30;;
23258;SDS011;11798;51.528;7.240;2023-02-26T00:52:28;4.53;;;1.67;;
23258;SDS011;11798;51.528;7.240;2023-02-26T00:55:04;4.17;;;1.87;;
23258;SDS011;11798;51.528;7.240;2023-02-26T00:57:30;8.67;;;1.90;;
23258;SDS011;11798;51.528;7.240;2023-02-26T00:59:56;6.37;;;1.83;;
23258;SDS011;11798;51.528;7.240;2023-02-26T01:02:21;3.83;;;1.83;;
23258;SDS011;11798;51.528;7.240;2023-02-26T01:04:47;4.13;;;1.63;;
23258;SDS011;11798;51.528;7.240;2023-02-26T01:07:13;3.23;;;1.40;;
23258;SDS011;11798;51.528;7.240;2023-02-26T01:09:41;4.27;;;1.60;;
23258;SDS011;11798;51.528;7.240;2023-02-26T01:12:08;4.33;;;1.67;;
23258;SDS011;11798;51.528;7.240;2023-02-26T01:14:37;9.63;;;1.93;;
23258;SDS011;11798;51.528;7.240;2023-02-26T01:19:57;3.40;;;1.63;;
23258;SDS011;11798;51.528;7.240;2023-02-26T01:22:39;4.90;;;1.60;;
23258;SDS011;11798;51.528;7.240;2023-02-26T01:25:49;4.17;;;2.07;;
23258;SDS011;11798;51.528;7.240;2023-02-26T01:28:14;3.03;;;1.50;;
23258;SDS011;11798;51.528;7.240;2023-02-26T01:30:41;6.10;;;1.43;;
23258;SDS011;11798;51.528;7.240;2023-02-26T01:33:15;2.23;;;1.40;;
23258;SDS011;11798;51.528;7.240;2023-02-26T01:35:57;5.50;;;1.83;;
23258;SDS011;11798;51.528;7.240;2023-02-26T01:38:35;6.97;;;1.53;;
23258;SDS011;11798;51.528;7.240;2023-02-26T01:44:02;4.73;;;1.37;;
23258;SDS011;11798;51.528;7.240;2023-02-26T01:46:35;5.13;;;1.57;;
23258;SDS011;11798;51.528;7.240;2023-02-26T01:49:20;5.60;;;1.40;;
23258;SDS011;11798;51.528;7.240;2023-02-26T01:54:19;5.80;;;1.50;;
23258;SDS011;11798;51.528;7.240;2023-02-26T01:56:47;4.40;;;2.07;;
23258;SDS011;11798;51.528;7.240;2023-02-26T01:59:17;3.30;;;1.50;;
23258;SDS011;11798;51.528;7.240;2023-02-26T02:01:48;3.70;;;1.27;;
23258;SDS011;11798;51.528;7.240;2023-02-26T02:04:15;5.10;;;1.50;;
23258;SDS011;11798;51.528;7.240;2023-02-26T02:06:41;3.67;;;1.33;;
23258;SDS011;11798;51.528;7.240;2023-02-26T02:09:07;5.73;;;1.63;;
23258;SDS011;11798;51.528;7.240;2023-02-26T02:11:34;6.23;;;1.50;;
23258;SDS011;11798;51.528;7.240;2023-02-26T02:14:59;2.70;;;1.20;;
23258;SDS011;11798;51.528;7.240;2023-02-26T02:33:43;4.97;;;1.80;;
23258;SDS011;11798;51.528;7.240;2023-02-26T02:39:15;2.20;;;1.10;;
23258;SDS011;11798;51.528;7.240;2023-02-26T02:41:57;3.50;;;1.63;;
23258;SDS011;11798;51.528;7.240;2023-02-26T02:44:44;5.60;;;1.80;;
23258;SDS011;11798;51.528;7.240;2023-02-26T02:47:16;6.30;;;1.40;;
23258;SDS011;11798;51.528;7.240;2023-02-26T02:49:46;6.27;;;1.70;;
23258;SDS011;11798;51.528;7.240;2023-02-26T02:52:25;6.20;;;1.67;;
23258;SDS011;11798;51.528;7.240;2023-02-26T02:55:11;4.40;;;1.77;;
23258;SDS011;11798;51.528;7.240;2023-02-26T03:00:33;2.90;;;1.40;;
23258;SDS011;11798;51.528;7.240;2023-02-26T03:03:17;3.90;;;1.40;;
23258;SDS011;11798;51.528;7.240;2023-02-26T03:05:56;6.00;;;1.53;;
23258;SDS011;11798;51.528;7.240;2023-02-26T03:08:23;3.87;;;1.27;;
23258;SDS011;11798;51.528;7.240;2023-02-26T03:10:52;5.03;;;1.50;;
23258;SDS011;11798;51.528;7.240;2023-02-26T03:13:20;6.73;;;1.37;;
23258;SDS011;11798;51.528;7.240;2023-02-26T03:18:40;2.80;;;1.60;;
23258;SDS011;11798;51.528;7.240;2023-02-26T03:26:57;5.07;;;1.50;;
23258;SDS011;11798;51.528;7.240;2023-02-26T03:29:46;1.73;;;1.43;;
23258;SDS011;11798;51.528;7.240;2023-02-26T03:32:28;6.33;;;1.73;;
23258;SDS011;11798;51.528;7.240;2023-02-26T03:35:17;11.70;;;1.77;;
23258;SDS011;11798;51.528;7.240;2023-02-26T03:37:49;4.67;;;1.47;;
23258;SDS011;11798;51.528;7.240;2023-02-26T03:40:21;4.67;;;1.60;;
23258;SDS011;11798;51.528;7.240;2023-02-26T03:42:52;4.23;;;1.37;;
23258;SDS011;11798;51.528;7.240;2023-02-26T03:45:25;4.63;;;1.50;;
23258;SDS011;11798;51.528;7.240;2023-02-26T03:47:54;3.87;;;1.80;;
23258;SDS011;11798;51.528;7.240;2023-02-26T03:50:31;4.63;;;1.33;;
23258;SDS011;11798;51.528;7.240;2023-02-26T03:52:57;5.73;;;1.30;;
23258;SDS011;11798;51.528;7.240;2023-02-26T03:55:47;3.60;;;1.60;;
23258;SDS011;11798;51.528;7.240;2023-02-26T03:58:22;2.50;;;1.47;;
23258;SDS011;11798;51.528;7.240;2023-02-26T04:00:49;2.77;;;1.40;;
23258;SDS011;11798;51.528;7.240;2023-02-26T04:03:27;6.20;;;1.60;;
23258;SDS011;11798;51.528;7.240;2023-02-26T04:05:53;3.07;;;1.27;;
23258;SDS011;11798;51.528;7.240;2023-02-26T04:08:20;5.37;;;1.53;;
23258;SDS011;11798;51.528;7.240;2023-02-26T04:11:03;5.23;;;1.73;;
23258;SDS011;11798;51.528;7.240;2023-02-26T04:13:33;3.50;;;1.53;;
23258;SDS011;11798;51.528;7.240;2023-02-26T04:15:59;3.53;;;1.60;;
23258;SDS011;11798;51.528;7.240;2023-02-26T04:18:24;4.27;;;1.53;;
23258;SDS011;11798;51.528;7.240;2023-02-26T04:20:50;7.80;;;1.50;;
23258;SDS011;11798;51.528;7.240;2023-02-26T04:23:16;3.73;;;1.77;;
23258;SDS011;11798;51.528;7.240;2023-02-26T04:25:43;5.50;;;1.50;;
23258;SDS011;11798;51.528;7.240;2023-02-26T04:28:09;3.13;;;1.40;;
23258;SDS011;11798;51.528;7.240;2023-02-26T04:30:34;3.10;;;1.40;;
23258;SDS011;11798;51.528;7.240;2023-02-26T04:33:00;6.90;;;1.90;;
23258;SDS011;11798;51.528;7.240;2023-02-26T04:35:26;5.17;;;1.63;;
23258;SDS011;11798;51.528;7.240;2023-02-26T04:37:52;3.17;;;1.37;;
23258;SDS011;11798;51.528;7.240;2023-02-26T04:40:17;5.37;;;1.30;;
23258;SDS011;11798;51.528;7.240;2023-02-26T04:42:43;5.37;;;1.73;;
23258;SDS011;11798;51.528;7.240;2023-02-26T04:45:09;3.50;;;1.60;;
23258;SDS011;11798;51.528;7.240;2023-02-26T04:47:34;6.23;;;1.80;;
23258;SDS011;11798;51.528;7.240;2023-02-26T04:50:00;3.63;;;1.43;;
23258;SDS011;11798;51.528;7.240;2023-02-26T04:52:26;4.70;;;2.23;;
23258;SDS011;11798;51.528;7.240;2023-02-26T04:54:52;8.20;;;1.70;;
23258;SDS011;11798;51.528;7.240;2023-02-26T04:57:17;4.63;;;1.60;;
23258;SDS011;11798;51.528;7.240;2023-02-26T04:59:43;3.53;;;1.50;;
23258;SDS011;11798;51.528;7.240;2023-02-26T05:02:08;3.27;;;1.47;;
23258;SDS011;11798;51.528;7.240;2023-02-26T05:04:34;3.90;;;1.70;;
23258;SDS011;11798;51.528;7.240;2023-02-26T05:07:00;6.20;;;1.40;;
23258;SDS011;11798;51.528;7.240;2023-02-26T05:09:25;5.57;;;2.13;;
23258;SDS011;11798;51.528;7.240;2023-02-26T05:11:51;3.67;;;1.60;;
23258;SDS011;11798;51.528;7.240;2023-02-26T05:14:17;4.83;;;1.73;;
23258;SDS011;11798;51.528;7.240;2023-02-26T05:16:42;7.43;;;1.73;;
23258;SDS011;11798;51.528;7.240;2023-02-26T05:19:08;2.27;;;1.63;;
23258;SDS011;11798;51.528;7.240;2023-02-26T05:21:34;6.73;;;1.90;;
23258;SDS011;11798;51.528;7.240;2023-02-26T05:23:59;4.30;;;1.60;;
23258;SDS011;11798;51.528;7.240;2023-02-26T05:26:25;5.43;;;1.33;;
23258;SDS011;11798;51.528;7.240;2023-02-26T05:28:51;4.03;;;1.47;;
23258;SDS011;11798;51.528;7.240;2023-02-26T05:31:16;3.37;;;1.47;;
23258;SDS011;11798;51.528;7.240;2023-02-26T05:33:42;9.63;;;1.60;;
23258;SDS011;11798;51.528;7.240;2023-02-26T05:36:09;4.33;;;1.47;;
23258;SDS011;11798;51.528;7.240;2023-02-26T05:38:35;4.93;;;1.63;;
23258;SDS011;11798;51.528;7.240;2023-02-26T05:41:00;5.23;;;1.43;;
23258;SDS011;11798;51.528;7.240;2023-02-26T05:43:27;7.33;;;1.90;;
23258;SDS011;11798;51.528;7.240;2023-02-26T05:45:52;3.30;;;1.50;;
23258;SDS011;11798;51.528;7.240;2023-02-26T05:48:19;7.50;;;2.13;;
23258;SDS011;11798;51.528;7.240;2023-02-26T05:50:46;4.67;;;1.90;;
23258;SDS011;11798;51.528;7.240;2023-02-26T05:53:13;6.07;;;1.83;;
23258;SDS011;11798;51.528;7.240;2023-02-26T05:55:39;10.43;;;2.10;;
23258;SDS011;11798;51.528;7.240;2023-02-26T05:58:05;5.07;;;1.77;;
23258;SDS011;11798;51.528;7.240;2023-02-26T06:00:30;4.87;;;1.87;;
23258;SDS011;11798;51.528;7.240;2023-02-26T06:02:56;5.77;;;1.70;;
23258;SDS011;11798;51.528;7.240;2023-02-26T06:05:22;4.77;;;1.30;;
23258;SDS011;11798;51.528;7.240;2023-02-26T06:07:47;7.30;;;1.70;;
23258;SDS011;11798;51.528;7.240;2023-02-26T06:10:13;4.37;;;1.60;;
23258;SDS011;11798;51.528;7.240;2023-02-26T06:12:38;5.37;;;1.70;;
23258;SDS011;11798;51.528;7.240;2023-02-26T06:15:05;3.03;;;1.47;;
23258;SDS011;11798;51.528;7.240;2023-02-26T06:17:32;5.50;;;1.53;;
23258;SDS011;11798;51.528;7.240;2023-02-26T06:19:57;3.10;;;1.60;;
23258;SDS011;11798;51.528;7.240;2023-02-26T06:22:24;5.50;;;1.50;;
23258;SDS011;11798;51.528;7.240;2023-02-26T06:24:49;8.07;;;2.20;;
23258;SDS011;11798;51.528;7.240;2023-02-26T06:27:15;4.80;;;1.73;;
23258;SDS011;11798;51.528;7.240;2023-02-26T06:29:41;5.53;;;1.60;;
23258;SDS011;11798;51.528;7.240;2023-02-26T06:32:07;4.20;;;1.90;;
23258;SDS011;11798;51.528;7.240;2023-02-26T06:34:32;2.70;;;1.27;;
23258;SDS011;11798;51.528;7.240;2023-02-26T06:36:58;3.53;;;1.60;;
23258;SDS011;11798;51.528;7.240;2023-02-26T06:39:24;10.83;;;1.73;;
23258;SDS011;11798;51.528;7.240;2023-02-26T06:41:50;5.27;;;1.90;;
23258;SDS011;11798;51.528;7.240;2023-02-26T06:44:16;5.30;;;1.80;;
23258;SDS011;11798;51.528;7.240;2023-02-26T06:46:42;4.13;;;1.77;;
23258;SDS011;11798;51.528;7.240;2023-02-26T06:49:07;5.20;;;1.93;;
23258;SDS011;11798;51.528;7.240;2023-02-26T06:51:33;6.03;;;1.87;;
23258;SDS011;11798;51.528;7.240;2023-02-26T06:53:59;4.40;;;1.43;;
23258;SDS011;11798;51.528;7.240;2023-02-26T06:56:25;4.53;;;1.43;;
23258;SDS011;11798;51.528;7.240;2023-02-26T06:58:51;12.97;;;2.07;;
23258;SDS011;11798;51.528;7.240;2023-02-26T07:01:16;2.03;;;1.40;;
23258;SDS011;11798;51.528;7.240;2023-02-26T07:03:42;3.00;;;1.47;;
23258;SDS011;11798;51.528;7.240;2023-02-26T07:06:08;5.67;;;2.50;;
23258;SDS011;11798;51.528;7.240;2023-02-26T07:08:36;7.03;;;1.67;;
23258;SDS011;11798;51.528;7.240;2023-02-26T07:11:03;3.90;;;1.30;;
23258;SDS011;11798;51.528;7.240;2023-02-26T07:13:29;6.23;;;1.70;;
23258;SDS011;11798;51.528;7.240;2023-02-26T07:15:54;5.27;;;1.60;;
23258;SDS011;11798;51.528;7.240;2023-02-26T07:18:20;5.73;;;2.33;;
23258;SDS011;11798;51.528;7.240;2023-02-26T07:20:48;3.37;;;1.47;;
23258;SDS011;11798;51.528;7.240;2023-02-26T07:23:14;2.77;;;1.40;;
23258;SDS011;11798;51.528;7.240;2023-02-26T07:25:40;6.47;;;1.90;;
23258;SDS011;11798;51.528;7.240;2023-02-26T07:28:05;9.30;;;2.13;;
23258;SDS011;11798;51.528;7.240;2023-02-26T07:30:31;3.17;;;1.97;;
23258;SDS011;11798;51.528;7.240;2023-02-26T07:32:57;4.20;;;1.40;;
23258;SDS011;11798;51.528;7.240;2023-02-26T07:35:23;7.60;;;1.63;;
23258;SDS011;11798;51.528;7.240;2023-02-26T07:37:49;3.30;;;1.70;;
23258;SDS011;11798;51.528;7.240;2023-02-26T07:40:16;3.20;;;1.70;;
23258;SDS011;11798;51.528;7.240;2023-02-26T07:42:42;4.03;;;1.87;;
23258;SDS011;11798;51.528;7.240;2023-02-26T07:45:08;5.03;;;1.70;;
23258;SDS011;11798;51.528;7.240;2023-02-26T07:47:34;6.20;;;1.70;;
23258;SDS011;11798;51.528;7.240;2023-02-26T07:50:00;4.53;;;1.60;;
23258;SDS011;11798;51.528;7.240;2023-02-26T07:52:25;4.07;;;2.40;;
23258;SDS011;11798;51.528;7.240;2023-02-26T07:54:51;5.97;;;1.90;;
23258;SDS011;11798;51.528;7.240;2023-02-26T07:57:17;3.40;;;2.27;;
23258;SDS011;11798;51.528;7.240;2023-02-26T07:59:43;7.80;;;1.80;;
23258;SDS011;11798;51.528;7.240;2023-02-26T08:02:10;3.17;;;1.70;;
23258;SDS011;11798;51.528;7.240;2023-02-26T08:04:37;5.67;;;2.20;;
23258;SDS011;11798;51.528;7.240;2023-02-26T08:07:03;5.27;;;1.73;;
23258;SDS011;11798;51.528;7.240;2023-02-26T08:09:29;5.73;;;1.70;;
23258;SDS011;11798;51.528;7.240;2023-02-26T08:11:55;6.73;;;2.80;;
23258;SDS011;11798;51.528;7.240;2023-02-26T08:14:21;4.60;;;1.80;;
23258;SDS011;11798;51.528;7.240;2023-02-26T08:16:47;4.00;;;1.80;;
23258;SDS011;11798;51.528;7.240;2023-02-26T08:19:13;3.27;;;1.90;;
23258;SDS011;11798;51.528;7.240;2023-02-26T08:21:39;4.67;;;1.67;;
23258;SDS011;11798;51.528;7.240;2023-02-26T08:24:05;4.70;;;1.80;;
23258;SDS011;11798;51.528;7.240;2023-02-26T08:26:30;8.27;;;1.80;;
23258;SDS011;11798;51.528;7.240;2023-02-26T08:29:00;3.97;;;1.67;;
23258;SDS011;11798;51.528;7.240;2023-02-26T08:31:25;2.80;;;1.60;;
23258;SDS011;11798;51.528;7.240;2023-02-26T08:33:52;5.93;;;2.03;;
23258;SDS011;11798;51.528;7.240;2023-02-26T08:36:18;3.10;;;1.70;;
23258;SDS011;11798;51.528;7.240;2023-02-26T08:38:45;4.77;;;1.80;;
23258;SDS011;11798;51.528;7.240;2023-02-26T08:41:11;4.40;;;1.40;;
23258;SDS011;11798;51.528;7.240;2023-02-26T08:43:37;5.40;;;1.60;;
23258;SDS011;11798;51.528;7.240;2023-02-26T08:46:02;2.63;;;1.37;;
23258;SDS011;11798;51.528;7.240;2023-02-26T08:48:29;5.80;;;1.43;;
23258;SDS011;11798;51.528;7.240;2023-02-26T08:50:54;4.03;;;1.30;;
23258;SDS011;11798;51.528;7.240;2023-02-26T08:53:20;6.13;;;1.90;;
23258;SDS011;11798;51.528;7.240;2023-02-26T08:55:46;5.70;;;2.00;;
23258;SDS011;11798;51.528;7.240;2023-02-26T08:58:16;5.73;;;1.60;;
23258;SDS011;11798;51.528;7.240;2023-02-26T09:00:43;7.23;;;1.17;;
23258;SDS011;11798;51.528;7.240;2023-02-26T09:03:09;3.30;;;1.30;;
23258;SDS011;11798;51.528;7.240;2023-02-26T09:05:34;4.07;;;1.30;;
23258;SDS011;11798;51.528;7.240;2023-02-26T09:08:00;2.63;;;1.30;;
23258;SDS011;11798;51.528;7.240;2023-02-26T09:10:26;7.83;;;1.30;;
23258;SDS011;11798;51.528;7.240;2023-02-26T09:12:51;5.73;;;1.60;;
23258;SDS011;11798;51.528;7.240;2023-02-26T09:15:17;2.77;;;1.43;;
23258;SDS011;11798;51.528;7.240;2023-02-26T09:17:44;3.77;;;1.37;;
23258;SDS011;11798;51.528;7.240;2023-02-26T09:20:10;3.47;;;1.70;;
23258;SDS011;11798;51.528;7.240;2023-02-26T09:22:38;5.03;;;1.97;;
23258;SDS011;11798;51.528;7.240;2023-02-26T09:25:05;3.67;;;1.33;;
23258;SDS011;11798;51.528;7.240;2023-02-26T09:27:31;4.03;;;2.00;;
23258;SDS011;11798;51.528;7.240;2023-02-26T09:29:57;7.57;;;3.00;;
23258;SDS011;11798;51.528;7.240;2023-02-26T09:32:23;4.20;;;1.77;;
23258;SDS011;11798;51.528;7.240;2023-02-26T09:34:50;6.13;;;1.80;;
23258;SDS011;11798;51.528;7.240;2023-02-26T09:37:17;4.83;;;2.10;;
23258;SDS011;11798;51.528;7.240;2023-02-26T09:39:43;3.63;;;1.70;;
23258;SDS011;11798;51.528;7.240;2023-02-26T09:45:06;4.33;;;1.77;;
23258;SDS011;11798;51.528;7.240;2023-02-26T09:47:49;2.33;;;1.10;;
23258;SDS011;11798;51.528;7.240;2023-02-26T09:50:18;2.90;;;1.40;;
23258;SDS011;11798;51.528;7.240;2023-02-26T09:52:54;2.83;;;1.40;;
23258;SDS011;11798;51.528;7.240;2023-02-26T09:55:38;2.83;;;1.63;;
23258;SDS011;11798;51.528;7.240;2023-02-26T09:58:14;4.07;;;1.33;;
23258;SDS011;11798;51.528;7.240;2023-02-26T10:01:09;1.97;;;0.97;;
23258;SDS011;11798;51.528;7.240;2023-02-26T10:14:23;4.37;;;1.30;;
23258;SDS011;11798;51.528;7.240;2023-02-26T10:16:51;3.77;;;1.30;;
23258;SDS011;11798;51.528;7.240;2023-02-26T10:19:24;5.67;;;1.40;;
23258;SDS011;11798;51.528;7.240;2023-02-26T10:25:18;5.20;;;1.20;;
23258;SDS011;11798;51.528;7.240;2023-02-26T10:30:34;3.53;;;1.30;;
23258;SDS011;11798;51.528;7.240;2023-02-26T10:33:12;2.03;;;0.97;;
23258;SDS011;11798;51.528;7.240;2023-02-26T10:35:51;4.30;;;1.13;;
23258;SDS011;11798;51.528;7.240;2023-02-26T10:38:19;2.80;;;1.03;;
23258;SDS011;11798;51.528;7.240;2023-02-26T10:40:50;3.47;;;1.40;;
23258;SDS011;11798;51.528;7.240;2023-02-26T10:51:21;1.87;;;1.20;;
23258;SDS011;11798;51.528;7.240;2023-02-26T10:53:51;2.53;;;1.10;;
23258;SDS011;11798;51.528;7.240;2023-02-26T10:56:29;3.00;;;1.37;;
23258;SDS011;11798;51.528;7.240;2023-02-26T10:58:56;2.67;;;1.40;;
23258;SDS011;11798;51.528;7.240;2023-02-26T11:01:22;2.93;;;1.80;;
23258;SDS011;11798;51.528;7.240;2023-02-26T11:03:53;2.47;;;0.80;;
23258;SDS011;11798;51.528;7.240;2023-02-26T11:06:27;3.73;;;0.90;;
23258;SDS011;11798;51.528;7.240;2023-02-26T11:09:06;3.90;;;1.20;;
23258;SDS011;11798;51.528;7.240;2023-02-26T11:12:00;2.87;;;1.00;;
23258;SDS011;11798;51.528;7.240;2023-02-26T11:14:39;3.27;;;1.30;;
23258;SDS011;11798;51.528;7.240;2023-02-26T11:17:13;1.63;;;0.90;;
23258;SDS011;11798;51.528;7.240;2023-02-26T11:20:02;4.43;;;1.70;;
23258;SDS011;11798;51.528;7.240;2023-02-26T11:22:44;3.70;;;1.20;;
23258;SDS011;11798;51.528;7.240;2023-02-26T11:25:17;4.67;;;1.10;;
23258;SDS011;11798;51.528;7.240;2023-02-26T11:27:47;3.20;;;1.20;;
23258;SDS011;11798;51.528;7.240;2023-02-26T11:30:24;3.67;;;1.00;;
23258;SDS011;11798;51.528;7.240;2023-02-26T11:32:52;3.80;;;1.10;;
23258;SDS011;11798;51.528;7.240;2023-02-26T11:35:22;3.00;;;0.93;;
23258;SDS011;11798;51.528;7.240;2023-02-26T11:37:57;3.77;;;1.10;;
23258;SDS011;11798;51.528;7.240;2023-02-26T11:42:59;6.57;;;1.10;;
23258;SDS011;11798;51.528;7.240;2023-02-26T11:45:28;4.23;;;1.37;;
23258;SDS011;11798;51.528;7.240;2023-02-26T11:48:01;1.87;;;0.90;;
23258;SDS011;11798;51.528;7.240;2023-02-26T11:50:29;1.97;;;0.97;;
23258;SDS011;11798;51.528;7.240;2023-02-26T11:53:05;6.63;;;1.33;;
23258;SDS011;11798;51.528;7.240;2023-02-26T11:55:42;4.87;;;1.30;;
23258;SDS011;11798;51.528;7.240;2023-02-26T11:58:20;3.17;;;1.10;;
23258;SDS011;11798;51.528;7.240;2023-02-26T12:00:47;3.13;;;1.00;;
23258;SDS011;11798;51.528;7.240;2023-02-26T12:03:21;2.30;;;1.00;;
23258;SDS011;11798;51.528;7.240;2023-02-26T12:05:50;3.07;;;0.93;;
23258;SDS011;11798;51.528;7.240;2023-02-26T12:10:53;2.60;;;0.93;;
23258;SDS011;11798;51.528;7.240;2023-02-26T12:16:07;1.67;;;0.80;;
23258;SDS011;11798;51.528;7.240;2023-02-26T12:24:13;3.70;;;0.80;;
23258;SDS011;11798;51.528;7.240;2023-02-26T12:29:24;2.53;;;0.83;;
23258;SDS011;11798;51.528;7.240;2023-02-26T12:43:15;1.53;;;0.70;;
23258;SDS011;11798;51.528;7.240;2023-02-26T12:49:12;2.13;;;0.77;;
23258;SDS011;11798;51.528;7.240;2023-02-26T13:00:28;2.90;;;0.90;;
23258;SDS011;11798;51.528;7.240;2023-02-26T13:03:08;2.37;;;0.83;;
23258;SDS011;11798;51.528;7.240;2023-02-26T13:08:29;1.90;;;0.70;;
23258;SDS011;11798;51.528;7.240;2023-02-26T13:21:43;2.00;;;0.80;;
23258;SDS011;11798;51.528;7.240;2023-02-26T13:24:19;2.77;;;0.90;;
23258;SDS011;11798;51.528;7.240;2023-02-26T13:26:52;1.53;;;0.90;;
23258;SDS011;11798;51.528;7.240;2023-02-26T13:29:40;2.37;;;0.80;;
23258;SDS011;11798;51.528;7.240;2023-02-26T13:32:13;3.63;;;1.53;;
23258;SDS011;11798;51.528;7.240;2023-02-26T13:37:26;1.97;;;0.97;;
23258;SDS011;11798;51.528;7.240;2023-02-26T13:53:01;2.80;;;1.03;;
23258;SDS011;11798;51.528;7.240;2023-02-26T13:55:41;3.40;;;1.00;;
23258;SDS011;11798;51.528;7.240;2023-02-26T14:03:43;2.33;;;1.10;;
23258;SDS011;11798;51.528;7.240;2023-02-26T14:08:44;2.47;;;1.00;;
23258;SDS011;11798;51.528;7.240;2023-02-26T14:13:41;1.20;;;1.00;;
23258;SDS011;11798;51.528;7.240;2023-02-26T14:16:27;3.10;;;0.90;;
23258;SDS011;11798;51.528;7.240;2023-02-26T14:19:02;2.50;;;1.00;;
23258;SDS011;11798;51.528;7.240;2023-02-26T14:24:16;1.87;;;1.00;;
23258;SDS011;11798;51.528;7.240;2023-02-26T14:26:44;3.37;;;1.10;;
23258;SDS011;11798;51.528;7.240;2023-02-26T14:29:13;3.00;;;1.10;;
23258;SDS011;11798;51.528;7.240;2023-02-26T14:34:42;3.57;;;1.27;;
23258;SDS011;11798;51.528;7.240;2023-02-26T14:37:14;2.20;;;1.20;;
23258;SDS011;11798;51.528;7.240;2023-02-26T14:39:47;1.20;;;1.00;;
23258;SDS011;11798;51.528;7.240;2023-02-26T14:47:48;1.30;;;1.20;;
23258;SDS011;11798;51.528;7.240;2023-02-26T14:50:19;1.47;;;1.10;;
23258;SDS011;11798;51.528;7.240;2023-02-26T14:55:44;2.53;;;1.20;;
23258;SDS011;11798;51.528;7.240;2023-02-26T15:11:38;3.70;;;1.13;;
23258;SDS011;11798;51.528;7.240;2023-02-26T15:19:54;4.33;;;1.47;;
23258;SDS011;11798;51.528;7.240;2023-02-26T15:25:39;1.67;;;1.07;;
23258;SDS011;11798;51.528;7.240;2023-02-26T15:28:05;2.37;;;1.20;;
23258;SDS011;11798;51.528;7.240;2023-02-26T15:30:35;1.67;;;1.10;;
23258;SDS011;11798;51.528;7.240;2023-02-26T15:33:03;1.67;;;1.10;;
23258;SDS011;11798;51.528;7.240;2023-02-26T15:35:31;1.90;;;1.30;;
23258;SDS011;11798;51.528;7.240;2023-02-26T15:37:59;2.10;;;1.27;;
23258;SDS011;11798;51.528;7.240;2023-02-26T15:40:27;4.23;;;1.10;;
23258;SDS011;11798;51.528;7.240;2023-02-26T15:42:56;4.83;;;1.37;;
23258;SDS011;11798;51.528;7.240;2023-02-26T15:48:11;2.87;;;1.60;;
23258;SDS011;11798;51.528;7.240;2023-02-26T15:50:52;2.33;;;1.47;;
23258;SDS011;11798;51.528;7.240;2023-02-26T15:53:26;2.77;;;1.63;;
23258;SDS011;11798;51.528;7.240;2023-02-26T15:56:07;2.73;;;1.53;;
23258;SDS011;11798;51.528;7.240;2023-02-26T15:58:44;1.73;;;1.27;;
23258;SDS011;11798;51.528;7.240;2023-02-26T16:01:22;5.17;;;1.80;;
23258;SDS011;11798;51.528;7.240;2023-02-26T16:03:49;3.27;;;1.50;;
23258;SDS011;11798;51.528;7.240;2023-02-26T16:06:22;4.80;;;1.90;;
23258;SDS011;11798;51.528;7.240;2023-02-26T16:08:56;2.87;;;1.60;;
23258;SDS011;11798;51.528;7.240;2023-02-26T16:11:25;4.93;;;2.03;;
23258;SDS011;11798;51.528;7.240;2023-02-26T16:14:04;3.23;;;1.53;;
23258;SDS011;11798;51.528;7.240;2023-02-26T16:16:40;5.43;;;1.70;;
23258;SDS011;11798;51.528;7.240;2023-02-26T16:19:29;1.97;;;1.30;;
23258;SDS011;11798;51.528;7.240;2023-02-26T16:25:04;2.80;;;1.50;;
23258;SDS011;11798;51.528;7.240;2023-02-26T16:27:32;2.40;;;1.73;;
23258;SDS011;11798;51.528;7.240;2023-02-26T16:29:59;2.33;;;1.63;;
23258;SDS011;11798;51.528;7.240;2023-02-26T16:32:28;4.30;;;2.00;;
23258;SDS011;11798;51.528;7.240;2023-02-26T16:34:56;3.10;;;1.60;;
23258;SDS011;11798;51.528;7.240;2023-02-26T16:37:26;2.67;;;1.63;;
23258;SDS011;11798;51.528;7.240;2023-02-26T16:47:50;3.63;;;1.77;;
23258;SDS011;11798;51.528;7.240;2023-02-26T16:50:27;3.50;;;1.70;;
23258;SDS011;11798;51.528;7.240;2023-02-26T16:53:01;2.60;;;1.83;;
23258;SDS011;11798;51.528;7.240;2023-02-26T16:55:30;2.43;;;1.53;;
23258;SDS011;11798;51.528;7.240;2023-02-26T16:57:58;4.27;;;1.60;;
23258;SDS011;11798;51.528;7.240;2023-02-26T17:00:28;5.33;;;1.77;;
23258;SDS011;11798;51.528;7.240;2023-02-26T17:03:18;2.97;;;1.50;;
23258;SDS011;11798;51.528;7.240;2023-02-26T17:06:26;5.10;;;1.77;;
23258;SDS011;11798;51.528;7.240;2023-02-26T17:11:26;4.37;;;1.53;;
23258;SDS011;11798;51.528;7.240;2023-02-26T17:16:34;4.90;;;2.20;;
23258;SDS011;11798;51.528;7.240;2023-02-26T17:19:00;4.57;;;1.97;;
23258;SDS011;11798;51.528;7.240;2023-02-26T17:21:26;5.03;;;3.00;;
23258;SDS011;11798;51.528;7.240;2023-02-26T17:23:53;4.00;;;2.73;;
23258;SDS011;11798;51.528;7.240;2023-02-26T17:26:19;4.23;;;2.30;;
23258;SDS011;11798;51.528;7.240;2023-02-26T17:28:45;4.23;;;2.43;;
23258;SDS011;11798;51.528;7.240;2023-02-26T17:31:10;4.17;;;2.50;;
23258;SDS011;11798;51.528;7.240;2023-02-26T17:33:37;4.53;;;2.40;;
23258;SDS011;11798;51.528;7.240;2023-02-26T17:36:05;5.57;;;2.50;;
23258;SDS011;11798;51.528;7.240;2023-02-26T17:38:31;3.37;;;2.03;;
23258;SDS011;11798;51.528;7.240;2023-02-26T17:40:57;2.30;;;2.03;;
23258;SDS011;11798;51.528;7.240;2023-02-26T17:43:24;6.27;;;2.13;;
23258;SDS011;11798;51.528;7.240;2023-02-26T17:45:49;3.63;;;2.47;;
23258;SDS011;11798;51.528;7.240;2023-02-26T17:48:16;3.80;;;2.00;;
23258;SDS011;11798;51.528;7.240;2023-02-26T17:50:54;3.73;;;2.27;;
23258;SDS011;11798;51.528;7.240;2023-02-26T17:53:22;6.30;;;2.23;;
23258;SDS011;11798;51.528;7.240;2023-02-26T17:55:51;5.60;;;2.37;;
23258;SDS011;11798;51.528;7.240;2023-02-26T17:58:21;3.67;;;1.97;;
23258;SDS011;11798;51.528;7.240;2023-02-26T18:00:52;5.27;;;2.07;;
23258;SDS011;11798;51.528;7.240;2023-02-26T18:03:19;3.07;;;1.90;;
23258;SDS011;11798;51.528;7.240;2023-02-26T18:05:46;5.40;;;2.20;;
23258;SDS011;11798;51.528;7.240;2023-02-26T18:08:32;4.47;;;2.50;;
23258;SDS011;11798;51.528;7.240;2023-02-26T18:10:59;3.00;;;1.77;;
23258;SDS011;11798;51.528;7.240;2023-02-26T18:13:25;6.97;;;2.43;;
23258;SDS011;11798;51.528;7.240;2023-02-26T18:15:52;3.50;;;2.20;;
23258;SDS011;11798;51.528;7.240;2023-02-26T18:18:20;3.23;;;2.17;;
23258;SDS011;11798;51.528;7.240;2023-02-26T18:20:47;3.27;;;2.27;;
23258;SDS011;11798;51.528;7.240;2023-02-26T18:23:14;3.93;;;2.20;;
23258;SDS011;11798;51.528;7.240;2023-02-26T18:25:41;4.10;;;2.60;;
23258;SDS011;11798;51.528;7.240;2023-02-26T18:28:10;3.53;;;2.77;;
23258;SDS011;11798;51.528;7.240;2023-02-26T18:30:41;4.27;;;2.37;;
23258;SDS011;11798;51.528;7.240;2023-02-26T18:33:08;7.17;;;3.17;;